Brevik Bridge — VRHY7 — position and weather

sailwx.info

Track history (hours):
 
Tides and Currents Weather Stations Pressure Air Temp Water Temp Dewpoint Dewpoint Depression Visibility Wind Speed Wind Dir Waves Ship Positions

Brevik Bridge

Last reported at 2015-Jul-27 15:26 UTC. Time now 2015-Jul-29 04:52 UTC.
Position S 34°47' E 019°07'.

Length 268 m; draft 10.8 m.

Type: Cargo ship. MMSI: 477866200.

Date/timePositionNaut miles runAvg speedWind from/ knotsBaromVisibWave heightAir tempDewpointWater temp
2015-Jul-27 15:26S 34°47' E 019°07'5212.9
2015-Jul-27 11:24S 34°19' E 018°14'27 1.7
2015-Jul-26 19:28S 33°54' E 018°27'0 0.0
2015-Jul-26 18:31S 33°54' E 018°27'0 0.0
2015-Jul-26 17:31S 33°54' E 018°27'0 0.0
2015-Jul-26 16:10S 33°54' E 018°27'0 0.0
2015-Jul-26 15:22S 33°54' E 018°27'4 0.2
2015-Jul-25 20:19S 33°52' E 018°23'4 5.0
2015-Jul-25 19:31S 33°49' E 018°26'0 0.0
2015-Jul-25 18:31S 33°49' E 018°26'0 0.0
2015-Jul-25 17:28S 33°49' E 018°26'0 0.0
2015-Jul-25 16:31S 33°49' E 018°26'0 0.0
2015-Jul-25 15:31S 33°49' E 018°26'0 0.0
2015-Jul-25 14:31S 33°49' E 018°26'0 0.0
2015-Jul-25 13:31S 33°49' E 018°26'0 0.0
2015-Jul-25 12:31S 33°49' E 018°26'0 0.0
2015-Jul-25 11:31S 33°49' E 018°26'0 0.0
2015-Jul-25 10:28S 33°49' E 018°26'0 0.0
2015-Jul-25 09:31S 33°49' E 018°26'0 0.0
2015-Jul-25 08:31S 33°49' E 018°26'0 0.0
2015-Jul-25 07:31S 33°49' E 018°26'0 0.0
2015-Jul-25 06:31S 33°49' E 018°26'2 1.7
2015-Jul-25 05:33S 33°51' E 018°25'  
2015-Jul-22 14:09S 30°17' E 030°54'915.3
2015-Jul-22 13:33S 30°09' E 030°58'1615.6
2015-Jul-22 12:33S 29°55' E 031°06'5 4.6
2015-Jul-22 11:32S 29°53' E 031°02'0 0.3
2015-Jul-22 10:32S 29°53' E 031°01'0 0.0
2015-Jul-22 09:32S 29°53' E 031°01'0 0.0
2015-Jul-22 08:06S 29°53' E 031°01'0 0.0
2015-Jul-22 07:29S 29°53' E 031°01'0 0.0
2015-Jul-22 06:32S 29°53' E 031°01'0 0.0
2015-Jul-22 05:32S 29°53' E 031°01'0 0.0
2015-Jul-22 04:33S 29°53' E 031°01'0 0.0
2015-Jul-22 03:32S 29°53' E 031°01'0 0.0
2015-Jul-22 02:33S 29°53' E 031°01'0 0.0
2015-Jul-22 01:33S 29°53' E 031°01'0 0.0
2015-Jul-22 00:33S 29°53' E 031°01'0 0.0
2015-Jul-21 23:33S 29°53' E 031°01'0 0.0
2015-Jul-21 22:33S 29°53' E 031°01'0 0.0
2015-Jul-21 21:32S 29°53' E 031°01'0 0.0
2015-Jul-21 20:32S 29°53' E 031°01'0 0.0
2015-Jul-21 19:32S 29°53' E 031°01'0 0.0
2015-Jul-21 18:33S 29°53' E 031°01'0 0.0
2015-Jul-21 17:32S 29°53' E 031°01'0 0.0
2015-Jul-21 16:32S 29°53' E 031°01'0 0.0
2015-Jul-21 15:32S 29°53' E 031°01'0 0.0
2015-Jul-21 14:32S 29°53' E 031°01'0 0.0
2015-Jul-21 13:33S 29°53' E 031°01'0 0.0
2015-Jul-21 12:32S 29°53' E 031°01'0 0.0
2015-Jul-21 11:33S 29°53' E 031°01'0 0.0
2015-Jul-21 10:32S 29°53' E 031°01'0 0.0
2015-Jul-21 09:33S 29°53' E 031°01'0 0.0
2015-Jul-21 08:32S 29°53' E 031°01'0 0.0
2015-Jul-21 07:33S 29°53' E 031°01'0 0.0
2015-Jul-21 06:32S 29°53' E 031°01'0 0.0
2015-Jul-21 05:32S 29°53' E 031°01'0 0.0
2015-Jul-21 04:33S 29°53' E 031°01'0 0.0
2015-Jul-21 03:33S 29°53' E 031°01'0 0.0
2015-Jul-21 02:32S 29°53' E 031°01'0 0.0
2015-Jul-21 01:33S 29°53' E 031°01'0 0.0
2015-Jul-21 00:32S 29°53' E 031°01'0 0.0
2015-Jul-20 23:32S 29°53' E 031°01'0 0.0
2015-Jul-20 22:33S 29°53' E 031°01'0 0.0
2015-Jul-20 21:33S 29°53' E 031°01'0 0.0
2015-Jul-20 20:33S 29°53' E 031°01'0 0.0
2015-Jul-20 19:32S 29°53' E 031°01'0 0.0
2015-Jul-20 18:33S 29°53' E 031°01'0 0.0
2015-Jul-20 17:32S 29°53' E 031°01'0 0.0
2015-Jul-20 16:32S 29°53' E 031°01'0 0.0
2015-Jul-20 15:33S 29°53' E 031°01'0 0.0
2015-Jul-20 14:32S 29°53' E 031°01'0 0.0
2015-Jul-20 13:32S 29°53' E 031°01'0 0.0
2015-Jul-20 12:32S 29°53' E 031°01'0 0.0
2015-Jul-20 11:32S 29°53' E 031°01'0 0.0
2015-Jul-20 10:32S 29°53' E 031°01'0 0.0
2015-Jul-20 09:33S 29°53' E 031°01'0 0.0
2015-Jul-20 08:33S 29°53' E 031°01'0 0.0
2015-Jul-20 07:32S 29°53' E 031°01'0 0.0
2015-Jul-20 06:32S 29°53' E 031°01'0 0.0
2015-Jul-20 05:33S 29°53' E 031°01'0 0.0
2015-Jul-20 04:32S 29°53' E 031°01'0 0.0
2015-Jul-20 03:33S 29°53' E 031°01'0 0.0
2015-Jul-20 02:32S 29°53' E 031°01'0 0.0
2015-Jul-20 01:33S 29°53' E 031°01'0 0.0
2015-Jul-20 00:33S 29°53' E 031°01'0 0.0
2015-Jul-19 23:33S 29°53' E 031°01'0 0.0
2015-Jul-19 22:32S 29°53' E 031°01'0 0.0
2015-Jul-19 21:32S 29°53' E 031°01'0 0.0
2015-Jul-19 20:32S 29°53' E 031°01'0 0.0
2015-Jul-19 19:32S 29°53' E 031°01'2 2.3
2015-Jul-19 18:34S 29°52' E 031°04'8 7.9
2015-Jul-19 17:33S 29°46' E 031°10'1 0.7
2015-Jul-19 16:32S 29°46' E 031°09'0 0.0
2015-Jul-19 15:32S 29°46' E 031°09'0 0.0
2015-Jul-19 14:32S 29°46' E 031°09'0 0.0
2015-Jul-19 13:32S 29°46' E 031°09'0 0.0
2015-Jul-19 12:32S 29°46' E 031°09'0 0.0
2015-Jul-19 11:32S 29°46' E 031°09'0 0.0
2015-Jul-19 10:32S 29°46' E 031°09'0 0.0
2015-Jul-19 09:32S 29°46' E 031°09'0 0.1
2015-Jul-19 08:32S 29°46' E 031°09'0 0.2
2015-Jul-19 07:32S 29°46' E 031°10'0 0.1
2015-Jul-19 06:32S 29°46' E 031°10'4 4.6
2015-Jul-19 05:33S 29°47' E 031°15'1212.0
2015-Jul-19 04:33S 29°44' E 031°28'  
Track history (hours):
 
Tides and Currents Weather Stations Pressure Air Temp Water Temp Dewpoint Dewpoint Depression Visibility Wind Speed Wind Dir Waves Ship Positions

Brevik Bridge

Last reported at 2015-Jul-27 15:26 UTC. Time now 2015-Jul-29 04:52 UTC.
Position S 34°47' E 019°07'.

Length 268 m; draft 10.8 m.

Type: Cargo ship. MMSI: 477866200.

Date/timePositionNaut miles runAvg speedWind from/ knotsBaromVisibWave heightAir tempDewpointWater temp
2015-Jul-27 15:26S 34°47' E 019°07'5212.9
2015-Jul-27 11:24S 34°19' E 018°14'27 1.7
2015-Jul-26 19:28S 33°54' E 018°27'0 0.0
2015-Jul-26 18:31S 33°54' E 018°27'0 0.0
2015-Jul-26 17:31S 33°54' E 018°27'0 0.0
2015-Jul-26 16:10S 33°54' E 018°27'0 0.0
2015-Jul-26 15:22S 33°54' E 018°27'4 0.2
2015-Jul-25 20:19S 33°52' E 018°23'4 5.0
2015-Jul-25 19:31S 33°49' E 018°26'0 0.0
2015-Jul-25 18:31S 33°49' E 018°26'0 0.0
2015-Jul-25 17:28S 33°49' E 018°26'0 0.0
2015-Jul-25 16:31S 33°49' E 018°26'0 0.0
2015-Jul-25 15:31S 33°49' E 018°26'0 0.0
2015-Jul-25 14:31S 33°49' E 018°26'0 0.0
2015-Jul-25 13:31S 33°49' E 018°26'0 0.0
2015-Jul-25 12:31S 33°49' E 018°26'0 0.0
2015-Jul-25 11:31S 33°49' E 018°26'0 0.0
2015-Jul-25 10:28S 33°49' E 018°26'0 0.0
2015-Jul-25 09:31S 33°49' E 018°26'0 0.0
2015-Jul-25 08:31S 33°49' E 018°26'0 0.0
2015-Jul-25 07:31S 33°49' E 018°26'0 0.0
2015-Jul-25 06:31S 33°49' E 018°26'2 1.7
2015-Jul-25 05:33S 33°51' E 018°25'  
2015-Jul-22 14:09S 30°17' E 030°54'915.3
2015-Jul-22 13:33S 30°09' E 030°58'1615.6
2015-Jul-22 12:33S 29°55' E 031°06'5 4.6
2015-Jul-22 11:32S 29°53' E 031°02'0 0.3
2015-Jul-22 10:32S 29°53' E 031°01'0 0.0
2015-Jul-22 09:32S 29°53' E 031°01'0 0.0
2015-Jul-22 08:06S 29°53' E 031°01'0 0.0
2015-Jul-22 07:29S 29°53' E 031°01'0 0.0
2015-Jul-22 06:32S 29°53' E 031°01'0 0.0
2015-Jul-22 05:32S 29°53' E 031°01'0 0.0
2015-Jul-22 04:33S 29°53' E 031°01'0 0.0
2015-Jul-22 03:32S 29°53' E 031°01'0 0.0
2015-Jul-22 02:33S 29°53' E 031°01'0 0.0
2015-Jul-22 01:33S 29°53' E 031°01'0 0.0
2015-Jul-22 00:33S 29°53' E 031°01'0 0.0
2015-Jul-21 23:33S 29°53' E 031°01'0 0.0
2015-Jul-21 22:33S 29°53' E 031°01'0 0.0
2015-Jul-21 21:32S 29°53' E 031°01'0 0.0
2015-Jul-21 20:32S 29°53' E 031°01'0 0.0
2015-Jul-21 19:32S 29°53' E 031°01'0 0.0
2015-Jul-21 18:33S 29°53' E 031°01'0 0.0
2015-Jul-21 17:32S 29°53' E 031°01'0 0.0
2015-Jul-21 16:32S 29°53' E 031°01'0 0.0
2015-Jul-21 15:32S 29°53' E 031°01'0 0.0
2015-Jul-21 14:32S 29°53' E 031°01'0 0.0
2015-Jul-21 13:33S 29°53' E 031°01'0 0.0
2015-Jul-21 12:32S 29°53' E 031°01'0 0.0
2015-Jul-21 11:33S 29°53' E 031°01'0 0.0
2015-Jul-21 10:32S 29°53' E 031°01'0 0.0
2015-Jul-21 09:33S 29°53' E 031°01'0 0.0
2015-Jul-21 08:32S 29°53' E 031°01'0 0.0
2015-Jul-21 07:33S 29°53' E 031°01'0 0.0
2015-Jul-21 06:32S 29°53' E 031°01'0 0.0
2015-Jul-21 05:32S 29°53' E 031°01'0 0.0
2015-Jul-21 04:33S 29°53' E 031°01'0 0.0
2015-Jul-21 03:33S 29°53' E 031°01'0 0.0
2015-Jul-21 02:32S 29°53' E 031°01'0 0.0
2015-Jul-21 01:33S 29°53' E 031°01'0 0.0
2015-Jul-21 00:32S 29°53' E 031°01'0 0.0
2015-Jul-20 23:32S 29°53' E 031°01'0 0.0
2015-Jul-20 22:33S 29°53' E 031°01'0 0.0
2015-Jul-20 21:33S 29°53' E 031°01'0 0.0
2015-Jul-20 20:33S 29°53' E 031°01'0 0.0
2015-Jul-20 19:32S 29°53' E 031°01'0 0.0
2015-Jul-20 18:33S 29°53' E 031°01'0 0.0
2015-Jul-20 17:32S 29°53' E 031°01'0 0.0
2015-Jul-20 16:32S 29°53' E 031°01'0 0.0
2015-Jul-20 15:33S 29°53' E 031°01'0 0.0
2015-Jul-20 14:32S 29°53' E 031°01'0 0.0
2015-Jul-20 13:32S 29°53' E 031°01'0 0.0
2015-Jul-20 12:32S 29°53' E 031°01'0 0.0
2015-Jul-20 11:32S 29°53' E 031°01'0 0.0
2015-Jul-20 10:32S 29°53' E 031°01'0 0.0
2015-Jul-20 09:33S 29°53' E 031°01'0 0.0
2015-Jul-20 08:33S 29°53' E 031°01'0 0.0
2015-Jul-20 07:32S 29°53' E 031°01'0 0.0
2015-Jul-20 06:32S 29°53' E 031°01'0 0.0
2015-Jul-20 05:33S 29°53' E 031°01'0 0.0
2015-Jul-20 04:32S 29°53' E 031°01'0 0.0
2015-Jul-20 03:33S 29°53' E 031°01'0 0.0
2015-Jul-20 02:32S 29°53' E 031°01'0 0.0
2015-Jul-20 01:33S 29°53' E 031°01'0 0.0
2015-Jul-20 00:33S 29°53' E 031°01'0 0.0
2015-Jul-19 23:33S 29°53' E 031°01'0 0.0
2015-Jul-19 22:32S 29°53' E 031°01'0 0.0
2015-Jul-19 21:32S 29°53' E 031°01'0 0.0
2015-Jul-19 20:32S 29°53' E 031°01'0 0.0
2015-Jul-19 19:32S 29°53' E 031°01'2 2.3
2015-Jul-19 18:34S 29°52' E 031°04'8 7.9
2015-Jul-19 17:33S 29°46' E 031°10'1 0.7
2015-Jul-19 16:32S 29°46' E 031°09'0 0.0
2015-Jul-19 15:32S 29°46' E 031°09'0 0.0
2015-Jul-19 14:32S 29°46' E 031°09'0 0.0
2015-Jul-19 13:32S 29°46' E 031°09'0 0.0
2015-Jul-19 12:32S 29°46' E 031°09'0 0.0
2015-Jul-19 11:32S 29°46' E 031°09'0 0.0
2015-Jul-19 10:32S 29°46' E 031°09'0 0.0
2015-Jul-19 09:32S 29°46' E 031°09'0 0.1
2015-Jul-19 08:32S 29°46' E 031°09'0 0.2
2015-Jul-19 07:32S 29°46' E 031°10'0 0.1
2015-Jul-19 06:32S 29°46' E 031°10'4 4.6
2015-Jul-19 05:33S 29°47' E 031°15'1212.0
2015-Jul-19 04:33S 29°44' E 031°28'  

Dump ship's entire track history